Time;durP1;ratioP1;P1;durP2;ratioP2;P2;SDS_P1;SDS_P2;PMS_P1;PMS_P2;Temp;Humidity;BMP_temperature;BMP_pressure;BME280_temperature;BME280_humidity;BME280_pressure;Samples;Min_cycle;Max_cycle;Signal;HPM_P1;HPM_P2
2022/05/26 00:01:06;;;;;;;23.90;17.25;;;19.80;80.50;;;;;;5075961;28;20024;-14
2022/05/26 00:03:38;;;;;;;21.95;15.50;;;19.70;78.10;;;;;;5075962;28;20060;-13
2022/05/26 00:06:06;;;;;;;20.77;14.52;;;19.70;78.30;;;;;;5075261;28;20017;-12
2022/05/26 00:08:34;;;;;;;22.70;15.98;;;19.70;77.80;;;;;;5075568;28;20025;-12
2022/05/26 00:11:01;;;;;;;21.30;16.02;;;19.60;78.60;;;;;;5075808;28;20021;-13
2022/05/26 00:13:27;;;;;;;22.48;15.50;;;19.50;78.80;;;;;;5075531;28;20043;-12
2022/05/26 00:15:53;;;;;;;20.85;15.65;;;19.50;79.40;;;;;;5075630;28;20029;-14
2022/05/26 00:18:20;;;;;;;22.02;16.15;;;19.50;79.00;;;;;;5075435;28;20468;-12
2022/05/26 00:20:47;;;;;;;22.25;15.70;;;19.50;79.30;;;;;;5075277;28;20028;-12
2022/05/26 00:23:13;;;;;;;27.42;19.25;;;19.40;79.90;;;;;;5075319;28;20039;-12
2022/05/26 00:25:39;;;;;;;27.15;20.45;;;19.40;80.50;;;;;;5075794;28;20070;-12
2022/05/26 00:28:06;;;;;;;22.33;16.33;;;19.40;81.50;;;;;;5075086;28;20021;-12
2022/05/26 00:30:32;;;;;;;23.98;16.83;;;19.30;80.80;;;;;;5074971;28;20028;-13
2022/05/26 00:33:00;;;;;;;21.50;14.40;;;19.30;80.80;;;;;;5075030;28;20450;-11
2022/05/26 00:35:27;;;;;;;19.88;14.55;;;19.30;80.10;;;;;;5074994;28;20119;-14
2022/05/26 00:37:53;;;;;;;18.63;14.07;;;19.30;80.70;;;;;;5075224;28;20028;-12
2022/05/26 00:40:20;;;;;;;21.58;14.95;;;19.30;80.40;;;;;;5074881;28;20043;-12
2022/05/26 00:42:46;;;;;;;18.58;14.95;;;19.20;79.40;;;;;;5075086;28;20035;-12
2022/05/26 00:45:12;;;;;;;26.65;16.65;;;19.20;79.70;;;;;;5075438;28;20028;-13
2022/05/26 00:47:45;;;;;;;18.75;14.32;;;19.20;79.60;;;;;;5074781;28;20029;-13
2022/05/26 00:50:22;;;;;;;19.13;14.27;;;19.20;80.00;;;;;;5075301;28;20024;-13
2022/05/26 00:52:54;;;;;;;20.77;14.95;;;19.20;80.80;;;;;;5074634;28;20036;-13
2022/05/26 00:55:40;;;;;;;24.67;16.90;;;19.10;80.80;;;;;;5074943;28;20020;-12
2022/05/26 00:58:30;;;;;;;25.10;17.10;;;19.10;81.50;;;;;;5074480;28;20387;-12
2022/05/26 01:01:00;;;;;;;23.23;16.17;;;19.10;82.20;;;;;;5074841;28;20025;-12
2022/05/26 01:03:32;;;;;;;22.17;16.63;;;19.10;81.50;;;;;;5074753;28;20025;-12
2022/05/26 01:06:09;;;;;;;23.90;17.33;;;19.00;81.00;;;;;;5074709;28;20031;-12
2022/05/26 01:08:42;;;;;;;29.10;19.77;;;19.00;80.80;;;;;;5074536;28;20158;-12
2022/05/26 01:11:08;;;;;;;21.08;14.95;;;19.10;80.60;;;;;;5074677;28;20165;-12
2022/05/26 01:13:44;;;;;;;24.08;16.92;;;19.00;80.40;;;;;;5074280;28;20017;-12
2022/05/26 01:16:14;;;;;;;22.08;15.02;;;19.00;80.10;;;;;;5073432;28;20385;-12
2022/05/26 01:19:04;;;;;;;19.27;12.90;;;19.00;80.00;;;;;;5074128;28;20495;-13
2022/05/26 01:21:40;;;;;;;18.10;13.13;;;19.00;80.10;;;;;;5074133;28;20116;-13
2022/05/26 01:24:27;;;;;;;21.50;14.18;;;18.90;79.70;;;;;;5074060;28;20020;-12
2022/05/26 01:27:18;;;;;;;20.63;13.13;;;19.00;80.00;;;;;;5074479;28;20100;-11
2022/05/26 01:30:08;;;;;;;21.42;13.77;;;19.00;80.50;;;;;;5073938;28;20430;-13
2022/05/26 01:32:36;;;;;;;20.58;12.75;;;18.90;80.10;;;;;;5073541;28;20105;-13
2022/05/26 01:35:20;;;;;;;20.13;13.48;;;18.90;80.00;;;;;;5074038;28;20099;-13
2022/05/26 01:38:00;;;;;;;20.10;14.68;;;18.90;79.70;;;;;;5073823;28;20480;-13
2022/05/26 01:40:48;;;;;;;17.50;11.88;;;18.90;80.00;;;;;;5073506;28;20033;-12
2022/05/26 01:43:48;;;;;;;27.02;16.35;;;18.80;79.80;;;;;;5073935;28;20154;-13
2022/05/26 01:46:40;;;;;;;25.00;16.75;;;18.80;79.90;;;;;;5073662;28;20025;-13
2022/05/26 01:49:33;;;;;;;23.83;18.85;;;18.80;81.20;;;;;;5073955;28;20062;-12
2022/05/26 01:52:12;;;;;;;21.30;17.05;;;18.70;81.40;;;;;;5073384;28;20530;-13
2022/05/26 01:54:58;;;;;;;26.65;18.90;;;18.70;82.00;;;;;;5073658;28;20020;-13
2022/05/26 01:57:28;;;;;;;29.58;20.20;;;18.70;83.20;;;;;;5073563;28;20060;-13
2022/05/26 02:00:06;;;;;;;26.63;17.10;;;18.70;83.20;;;;;;5073720;28;20029;-12
2022/05/26 02:02:39;;;;;;;26.67;18.27;;;18.80;82.90;;;;;;5073226;28;20036;-13
2022/05/26 02:05:20;;;;;;;24.30;18.40;;;18.80;83.10;;;;;;5073396;28;20021;-12
2022/05/26 02:07:48;;;;;;;25.45;17.33;;;18.90;83.00;;;;;;5073976;28;20465;-12
2022/05/26 02:10:41;;;;;;;27.27;19.52;;;19.00;83.30;;;;;;5073684;28;20035;-13
2022/05/26 02:13:33;;;;;;;29.58;19.13;;;19.00;83.00;;;;;;5070126;28;20554;-12
2022/05/26 02:16:28;;;;;;;22.30;15.77;;;19.10;83.20;;;;;;5070685;28;20090;-12
2022/05/26 02:19:16;;;;;;;24.48;16.73;;;19.10;82.80;;;;;;5072602;28;20484;-14
2022/05/26 02:22:06;;;;;;;26.70;17.70;;;19.20;82.40;;;;;;5073826;28;20060;-13
2022/05/26 02:25:04;;;;;;;25.40;17.67;;;19.20;83.20;;;;;;5073271;28;20056;-12
2022/05/26 02:27:31;;;;;;;27.67;17.70;;;19.30;83.00;;;;;;5072219;28;20043;-12
2022/05/26 02:30:00;;;;;;;27.42;18.50;;;19.30;82.80;;;;;;5073381;28;20048;-12
2022/05/26 02:32:32;;;;;;;27.27;18.10;;;19.30;82.60;;;;;;5072625;28;20076;-12
2022/05/26 02:35:00;;;;;;;23.92;16.70;;;19.40;82.90;;;;;;5073573;28;20029;-13
2022/05/26 02:37:28;;;;;;;26.60;18.48;;;19.40;82.20;;;;;;5073332;28;20048;-13
2022/05/26 02:39:54;;;;;;;29.15;18.75;;;19.40;82.40;;;;;;5073177;28;20079;-13
2022/05/26 02:42:21;;;;;;;28.30;19.80;;;19.40;82.70;;;;;;5072851;28;20021;-13
2022/05/26 02:44:48;;;;;;;26.13;19.33;;;19.40;83.10;;;;;;5072998;28;20032;-13
2022/05/26 02:47:46;;;;;;;28.23;19.35;;;19.40;83.00;;;;;;5073317;28;20483;-12
2022/05/26 02:50:30;;;;;;;30.85;20.10;;;19.50;83.40;;;;;;5070704;28;20526;-12
2022/05/26 02:53:01;;;;;;;26.98;19.63;;;19.50;83.70;;;;;;5072821;28;20075;-13
2022/05/26 02:55:44;;;;;;;32.03;20.15;;;19.50;83.30;;;;;;5073187;28;20032;-13
2022/05/26 02:58:13;;;;;;;32.88;19.88;;;19.60;83.60;;;;;;5072917;28;20146;-11
2022/05/26 03:01:04;;;;;;;29.00;19.50;;;19.60;83.30;;;;;;5073236;28;20060;-13
2022/05/26 03:03:52;;;;;;;27.58;19.95;;;19.60;83.70;;;;;;5073664;28;20024;-13
2022/05/26 03:06:47;;;;;;;25.20;17.55;;;19.70;83.60;;;;;;5072576;28;20037;-13
2022/05/26 03:09:14;;;;;;;22.90;17.45;;;19.70;83.20;;;;;;5072745;28;20065;-12
2022/05/26 03:11:51;;;;;;;22.80;16.90;;;19.70;82.90;;;;;;5072752;28;20024;-12
2022/05/26 03:14:19;;;;;;;24.75;16.13;;;19.80;82.70;;;;;;5072713;28;20116;-12
2022/05/26 03:16:45;;;;;;;27.00;19.55;;;19.80;82.70;;;;;;5073149;28;20036;-12
2022/05/26 03:19:12;;;;;;;28.30;20.27;;;19.80;83.30;;;;;;5072613;28;20025;-19
2022/05/26 03:21:39;;;;;;;30.17;20.88;;;19.80;82.90;;;;;;5073188;28;20021;-12
2022/05/26 03:24:05;;;;;;;22.70;16.73;;;19.80;83.30;;;;;;5072842;28;20033;-12
2022/05/26 03:26:32;;;;;;;29.38;20.58;;;19.70;82.70;;;;;;5072612;28;20017;-13
2022/05/26 03:28:58;;;;;;;29.08;20.67;;;19.70;83.00;;;;;;5072687;28;20029;-12
2022/05/26 03:31:25;;;;;;;26.02;19.45;;;19.70;83.30;;;;;;5072356;28;20055;-14
2022/05/26 03:42:09;;;;;;;22.83;16.60;;;19.50;83.10;;;;;;5076670;28;20430;-12
2022/05/26 03:44:36;;;;;;;29.77;21.02;;;19.40;83.00;;;;;;5075957;28;20384;-13
2022/05/26 03:47:04;;;;;;;26.17;19.88;;;19.40;83.60;;;;;;5075960;28;20602;-12
2022/05/26 03:49:29;;;;;;;26.92;17.85;;;19.40;83.50;;;;;;5075837;28;20400;-12
2022/05/26 03:51:57;;;;;;;27.67;18.55;;;19.30;83.10;;;;;;5076012;28;20489;-12
2022/05/26 03:54:25;;;;;;;27.35;19.23;;;19.30;83.20;;;;;;5075594;28;20028;-12
2022/05/26 03:56:51;;;;;;;23.52;17.30;;;19.30;83.20;;;;;;5075785;28;20476;-12
2022/05/26 03:59:17;;;;;;;25.10;16.85;;;19.20;83.30;;;;;;5075925;28;20380;-13
2022/05/26 04:01:43;;;;;;;24.60;15.73;;;19.20;83.30;;;;;;5075990;28;20024;-13
2022/05/26 04:04:09;;;;;;;19.90;14.27;;;19.20;82.70;;;;;;5075629;28;20480;-12
2022/05/26 04:06:36;;;;;;;19.42;14.60;;;19.20;82.50;;;;;;5074177;28;20024;-13
2022/05/26 04:09:03;;;;;;;19.88;13.88;;;19.20;82.70;;;;;;5075680;28;20047;-12
2022/05/26 04:11:29;;;;;;;18.08;13.40;;;19.20;82.40;;;;;;5075482;28;20029;-13
2022/05/26 04:13:55;;;;;;;19.77;14.48;;;19.20;82.30;;;;;;5075515;28;20455;-11
2022/05/26 04:16:22;;;;;;;19.90;14.35;;;19.20;82.50;;;;;;5075395;28;20052;-13
2022/05/26 04:18:48;;;;;;;25.20;16.55;;;19.20;82.60;;;;;;5075597;28;20017;-12
2022/05/26 04:21:14;;;;;;;30.25;18.52;;;19.20;83.20;;;;;;5075718;28;20095;-13
2022/05/26 04:23:41;;;;;;;30.48;20.58;;;19.20;83.80;;;;;;5075616;28;20040;-12
2022/05/26 04:26:08;;;;;;;31.63;18.38;;;19.30;84.30;;;;;;5075125;28;20460;-11
2022/05/26 04:28:35;;;;;;;31.92;17.90;;;19.30;84.00;;;;;;5075196;28;20029;-12
2022/05/26 04:31:02;;;;;;;27.60;18.83;;;19.30;83.50;;;;;;5075437;28;20085;-12
2022/05/26 04:33:28;;;;;;;32.55;18.88;;;19.40;83.70;;;;;;5074804;28;20036;-13
2022/05/26 04:35:56;;;;;;;25.98;16.67;;;19.40;83.90;;;;;;5075196;28;20025;-12
2022/05/26 04:38:22;;;;;;;29.92;19.10;;;19.50;83.70;;;;;;5075103;28;20033;-12
2022/05/26 04:41:03;;;;;;;26.48;18.13;;;19.50;84.50;;;;;;5074945;28;20028;-12
2022/05/26 04:43:31;;;;;;;35.20;21.10;;;19.60;84.10;;;;;;5075115;28;20099;-12
2022/05/26 04:45:58;;;;;;;34.95;21.85;;;19.70;84.20;;;;;;5076003;28;20052;-13
2022/05/26 04:48:24;;;;;;;31.98;20.58;;;19.70;84.00;;;;;;5074557;28;20029;-12
2022/05/26 04:50:51;;;;;;;27.95;18.48;;;19.80;83.90;;;;;;5075223;28;20013;-12
2022/05/26 04:53:18;;;;;;;33.55;21.75;;;19.80;83.60;;;;;;5074885;28;20032;-12
2022/05/26 04:55:44;;;;;;;32.67;19.08;;;19.90;84.20;;;;;;5074584;28;20086;-12
2022/05/26 04:58:10;;;;;;;27.77;17.10;;;19.90;83.60;;;;;;5074449;28;20460;-12
2022/05/26 05:00:37;;;;;;;35.30;21.15;;;19.90;83.30;;;;;;5074411;28;20032;-13
2022/05/26 05:03:03;;;;;;;32.92;19.00;;;20.00;83.20;;;;;;5074764;28;20529;-13
2022/05/26 05:05:29;;;;;;;34.20;19.63;;;20.00;82.80;;;;;;5074985;28;20021;-12
2022/05/26 05:07:55;;;;;;;35.53;20.50;;;20.10;83.40;;;;;;5074350;28;20031;-12
2022/05/26 05:10:21;;;;;;;29.02;17.90;;;20.20;83.20;;;;;;5074230;28;20058;-12
2022/05/26 05:12:49;;;;;;;35.30;19.73;;;20.20;82.70;;;;;;5074077;28;20117;-14
2022/05/26 05:15:28;;;;;;;24.80;15.55;;;20.30;82.50;;;;;;5073002;28;20031;-12
2022/05/26 05:17:53;;;;;;;29.10;18.05;;;20.40;82.10;;;;;;5074449;28;20410;-13
2022/05/26 05:20:19;;;;;;;34.20;19.55;;;20.40;82.10;;;;;;5073886;28;20023;-12
2022/05/26 05:22:53;;;;;;;28.23;17.55;;;20.50;82.10;;;;;;5074953;28;20024;-14
2022/05/26 05:25:27;;;;;;;25.67;15.65;;;20.50;81.50;;;;;;5074686;28;20085;-13
2022/05/26 05:27:58;;;;;;;26.88;15.70;;;20.50;81.00;;;;;;5074228;28;20456;-13
2022/05/26 05:30:30;;;;;;;22.63;14.65;;;20.70;80.20;;;;;;5073789;28;20020;-12
2022/05/26 05:33:13;;;;;;;23.67;14.07;;;20.70;79.60;;;;;;5073722;28;20074;-13
2022/05/26 05:35:48;;;;;;;;;;;20.80;79.10;;;;;;5074630;28;20070;-13
2022/05/26 05:38:16;;;;;;;23.73;13.50;;;20.90;79.30;;;;;;5073670;28;20383;-13
2022/05/26 05:40:42;;;;;;;20.45;13.25;;;21.00;79.50;;;;;;5073766;28;20028;-13
2022/05/26 05:43:08;;;;;;;19.98;12.82;;;21.20;78.50;;;;;;5073667;28;20017;-13
2022/05/26 05:45:34;;;;;;;21.13;12.57;;;21.40;77.10;;;;;;5072446;28;20035;-12
2022/05/26 05:48:00;;;;;;;20.98;11.60;;;21.40;77.20;;;;;;5073930;28;20021;-12
2022/05/26 05:50:27;;;;;;;18.48;11.25;;;21.60;76.60;;;;;;5073718;28;20107;-13
2022/05/26 05:52:53;;;;;;;18.17;11.57;;;21.70;76.40;;;;;;5073907;28;20043;-13
2022/05/26 05:55:19;;;;;;;21.63;10.93;;;21.80;75.70;;;;;;5073415;28;20040;-13
2022/05/26 05:57:45;;;;;;;16.70;11.27;;;21.90;75.80;;;;;;5073733;28;20024;-12
2022/05/26 06:00:11;;;;;;;14.73;10.93;;;22.00;75.20;;;;;;5074028;28;20473;-13
2022/05/26 06:02:37;;;;;;;18.45;11.38;;;22.10;75.00;;;;;;5071478;28;20056;-12
2022/05/26 06:05:05;;;;;;;18.88;10.75;;;22.10;74.60;;;;;;5072198;28;20111;-13
2022/05/26 06:07:32;;;;;;;21.40;11.73;;;22.20;74.50;;;;;;5073675;28;20017;-12
2022/05/26 06:09:58;;;;;;;16.95;11.30;;;22.40;74.10;;;;;;5073677;28;20028;-13
2022/05/26 06:12:24;;;;;;;23.67;11.55;;;22.50;73.10;;;;;;5073459;28;20036;-12
2022/05/26 06:14:49;;;;;;;25.02;12.23;;;22.50;72.30;;;;;;5073059;28;20067;-12
2022/05/26 06:17:16;;;;;;;24.90;12.18;;;22.60;72.80;;;;;;5073294;28;20475;-12
2022/05/26 06:19:44;;;;;;;17.95;11.70;;;22.60;72.60;;;;;;5073212;28;20060;-13
2022/05/26 06:22:13;;;;;;;21.17;12.40;;;22.70;72.60;;;;;;5074027;28;20024;-12
2022/05/26 06:24:40;;;;;;;19.05;12.48;;;22.80;72.90;;;;;;5073231;28;20128;-12
2022/05/26 06:29:53;;;;;;;20.08;13.18;;;22.90;72.60;;;;;;5073371;28;20235;-12
2022/05/26 06:37:52;;;;;;;18.98;11.80;;;23.20;71.00;;;;;;5073656;28;20086;-12
2022/05/26 06:40:19;;;;;;;23.13;11.82;;;23.30;70.60;;;;;;5072810;28;20068;-12
2022/05/26 06:42:47;;;;;;;22.92;11.73;;;23.30;70.80;;;;;;5072897;28;20024;-12
2022/05/26 06:45:15;;;;;;;18.45;11.77;;;23.30;70.80;;;;;;5072937;28;20025;-12
2022/05/26 06:47:42;;;;;;;22.42;13.20;;;23.30;70.70;;;;;;5072911;28;20036;-11
2022/05/26 06:50:10;;;;;;;21.10;11.38;;;23.40;71.20;;;;;;5073291;28;20491;-12
2022/05/26 06:52:36;;;;;;;23.13;12.60;;;23.50;71.10;;;;;;5072624;28;20054;-11
2022/05/26 06:55:05;;;;;;;22.30;12.40;;;23.80;70.60;;;;;;5073147;28;20062;-11
2022/05/26 06:57:31;;;;;;;22.52;13.43;;;23.90;70.30;;;;;;5072927;28;20387;-11
2022/05/26 06:59:57;;;;;;;20.70;12.60;;;23.90;69.40;;;;;;5073017;28;20169;-12
2022/05/26 07:02:24;;;;;;;21.08;12.77;;;23.90;69.30;;;;;;5072869;28;20492;-11
2022/05/26 07:04:50;;;;;;;21.45;12.57;;;23.90;69.70;;;;;;5072745;28;20388;-12
2022/05/26 07:07:17;;;;;;;22.00;13.13;;;23.90;69.50;;;;;;5072733;28;20403;-11
2022/05/26 07:09:44;;;;;;;24.00;13.30;;;23.80;69.60;;;;;;5072666;28;20037;-13
2022/05/26 07:12:11;;;;;;;21.95;12.60;;;23.80;69.90;;;;;;5072615;28;20025;-11
2022/05/26 07:14:37;;;;;;;27.25;13.20;;;24.00;70.80;;;;;;5073379;28;20056;-12
2022/05/26 07:17:03;;;;;;;18.33;11.95;;;24.40;70.50;;;;;;5076479;28;20579;-13
2022/05/26 07:19:33;;;;;;;21.27;13.43;;;24.70;69.00;;;;;;5076762;28;20031;-12
2022/05/26 07:21:59;;;;;;;23.77;13.25;;;25.00;68.00;;;;;;5076743;28;20031;-11
2022/05/26 07:24:26;;;;;;;18.92;12.40;;;25.30;67.20;;;;;;5076449;28;20021;-12
2022/05/26 07:26:52;;;;;;;21.25;12.43;;;25.40;66.70;;;;;;5076359;28;20028;-12
2022/05/26 07:29:19;;;;;;;24.75;13.52;;;25.50;66.60;;;;;;5076191;28;20029;-11
2022/05/26 07:31:46;;;;;;;23.67;12.73;;;25.50;66.30;;;;;;5076280;28;20056;-12
2022/05/26 07:34:12;;;;;;;19.67;12.07;;;25.40;67.00;;;;;;5076220;28;20082;-11
2022/05/26 07:42:15;;;;;;;21.70;11.70;;;25.80;66.20;;;;;;5076373;28;20094;-12
2022/05/26 07:44:44;;;;;;;23.40;12.13;;;26.10;65.30;;;;;;5076536;28;20032;-12
2022/05/26 07:47:11;;;;;;;21.15;12.30;;;26.30;64.80;;;;;;5076008;28;20021;-11
2022/05/26 07:49:41;;;;;;;27.70;12.50;;;26.30;64.40;;;;;;5075764;28;20438;-12
2022/05/26 07:52:08;;;;;;;26.52;12.45;;;26.40;63.70;;;;;;5075847;28;20029;-11
2022/05/26 07:54:34;;;;;;;21.35;11.05;;;26.40;63.60;;;;;;5075838;28;20032;-12
2022/05/26 07:57:01;;;;;;;21.85;11.00;;;26.60;63.90;;;;;;5076068;28;20498;-12
2022/05/26 07:59:29;;;;;;;22.80;11.38;;;26.90;63.50;;;;;;5075311;28;20139;-11
2022/05/26 08:01:55;;;;;;;21.42;10.75;;;27.40;62.00;;;;;;5075622;28;20400;-11
2022/05/26 08:04:21;;;;;;;15.75;9.55;;;27.70;61.20;;;;;;5075520;28;20103;-11
2022/05/26 08:06:50;;;;;;;23.73;12.35;;;28.00;61.00;;;;;;5074448;28;20553;-11
2022/05/26 08:09:19;;;;;;;24.25;11.90;;;28.00;58.90;;;;;;5075738;28;20029;-11
2022/05/26 08:11:46;;;;;;;20.83;9.98;;;28.10;60.20;;;;;;5075387;28;20074;-11
2022/05/26 08:14:13;;;;;;;19.77;10.32;;;28.20;59.70;;;;;;5075610;28;20476;-9
2022/05/26 08:16:40;;;;;;;20.27;10.20;;;28.40;59.00;;;;;;5075418;28;20028;-10
2022/05/26 08:19:06;;;;;;;23.33;10.77;;;28.20;59.10;;;;;;5075318;28;20123;-10
2022/05/26 08:21:33;;;;;;;19.40;11.05;;;28.20;58.60;;;;;;5075296;28;20370;-11
2022/05/26 08:24:00;;;;;;;17.70;9.43;;;28.40;58.60;;;;;;5075400;28;20453;-12
2022/05/26 08:26:28;;;;;;;21.90;10.98;;;28.60;58.20;;;;;;5074652;28;20043;-10
2022/05/26 08:28:55;;;;;;;18.73;10.48;;;28.70;57.60;;;;;;5075258;28;20025;-11
2022/05/26 08:31:21;;;;;;;19.30;9.40;;;28.70;57.30;;;;;;5075120;28;20435;-12
2022/05/26 08:33:47;;;;;;;27.23;13.57;;;28.90;57.80;;;;;;5074672;28;20473;-11
2022/05/26 08:36:16;;;;;;;93.38;29.20;;;29.00;56.90;;;;;;5075118;28;20036;-12
2022/05/26 08:38:44;;;;;;;26.50;13.25;;;29.10;60.70;;;;;;5074813;28;20032;-12
2022/05/26 08:41:19;;;;;;;18.95;9.32;;;28.60;61.60;;;;;;5074795;28;20067;-12
2022/05/26 08:43:51;;;;;;;219.00;58.95;;;28.40;62.20;;;;;;5074739;28;20024;-12
2022/05/26 08:46:19;;;;;;;128.88;43.95;;;28.40;65.20;;;;;;5074621;28;20476;-11
2022/05/26 08:48:50;;;;;;;22.25;13.80;;;27.80;70.40;;;;;;5074832;28;20017;-12
2022/05/26 08:51:40;;;;;;;394.70;76.03;;;27.00;70.50;;;;;;5074893;28;20028;-12
2022/05/26 08:54:10;;;;;;;29.88;15.57;;;26.50;79.40;;;;;;5074909;28;20078;-12
2022/05/26 08:56:38;;;;;;;24.27;13.55;;;26.00;72.60;;;;;;5074737;28;20104;-12
2022/05/26 08:59:10;;;;;;;19.65;11.90;;;25.90;71.10;;;;;;5074450;28;20472;-11
2022/05/26 09:01:38;;;;;;;20.13;12.30;;;25.80;70.70;;;;;;5074430;28;20480;-11
2022/05/26 09:04:04;;;;;;;25.73;12.50;;;25.80;70.20;;;;;;5074298;28;20021;-10
2022/05/26 09:12:55;;;;;;;22.08;11.43;;;26.10;69.80;;;;;;5074123;28;20031;-10
2022/05/26 09:15:02;;;;;;;19.23;10.25;;;26.60;65.90;;;;;;5074565;28;20055;-10
2022/05/26 09:17:29;;;;;;;16.55;8.43;;;27.10;64.60;;;;;;5074519;28;20020;-10
2022/05/26 09:19:55;;;;;;;17.23;9.20;;;27.50;63.10;;;;;;5074520;28;20025;-10
2022/05/26 09:22:42;;;;;;;18.75;8.82;;;27.90;60.60;;;;;;5074029;28;20515;-10
2022/05/26 09:25:42;;;;;;;18.65;7.97;;;28.30;60.50;;;;;;5074502;28;20579;-9
2022/05/26 09:28:10;;;;;;;14.93;9.32;;;28.60;58.70;;;;;;5073489;28;20476;-10
2022/05/26 09:30:37;;;;;;;21.70;10.30;;;28.70;58.30;;;;;;5074131;28;20032;-10
2022/05/26 09:33:18;;;;;;;21.40;10.88;;;28.40;58.40;;;;;;5073523;28;20063;-10
2022/05/26 09:35:45;;;;;;;18.90;10.48;;;28.00;58.70;;;;;;5074241;28;20032;-10
2022/05/26 09:38:17;;;;;;;22.35;10.48;;;27.80;59.40;;;;;;5073456;28;20028;-10
2022/05/26 09:40:47;;;;;;;22.63;10.83;;;27.70;59.40;;;;;;5073855;28;20028;-10
2022/05/26 09:43:16;;;;;;;17.90;8.30;;;27.60;59.80;;;;;;5073948;28;20439;-10
2022/05/26 09:45:45;;;;;;;20.95;10.43;;;27.40;59.90;;;;;;5073697;28;20506;-10
2022/05/26 09:48:33;;;;;;;21.98;10.25;;;27.20;59.40;;;;;;5073977;28;20037;-11
2022/05/26 09:51:08;;;;;;;17.85;10.32;;;27.10;60.10;;;;;;5073678;28;20356;-10
2022/05/26 09:53:45;;;;;;;21.92;10.02;;;27.50;59.80;;;;;;5074038;28;20040;-10
2022/05/26 09:56:26;;;;;;;18.85;9.93;;;27.90;58.90;;;;;;5072408;28;20025;-10
2022/05/26 09:58:52;;;;;;;19.08;9.93;;;28.40;57.60;;;;;;5073765;28;20028;-10
2022/05/26 10:01:20;;;;;;;16.73;8.90;;;28.90;56.30;;;;;;5073475;28;20028;-10
2022/05/26 10:04:17;;;;;;;17.15;9.10;;;29.40;55.60;;;;;;5073440;28;20471;-10
2022/05/26 10:07:08;;;;;;;20.67;10.35;;;29.90;54.10;;;;;;5073707;28;20024;-11
2022/05/26 10:09:49;;;;;;;20.15;10.10;;;30.20;52.20;;;;;;5073322;28;20039;-12
2022/05/26 10:12:24;;;;;;;18.60;9.93;;;30.30;52.00;;;;;;5073318;28;20036;-10
2022/05/26 10:15:21;;;;;;;18.35;9.57;;;30.50;51.10;;;;;;5073854;28;20047;-11
2022/05/26 10:18:03;;;;;;;15.68;9.27;;;30.80;51.50;;;;;;5073639;28;20100;-11
2022/05/26 10:21:05;;;;;;;18.02;8.35;;;31.00;51.40;;;;;;5073714;28;20059;-11
2022/05/26 10:23:34;;;;;;;15.20;8.65;;;31.30;50.30;;;;;;5072233;28;20545;-10
2022/05/26 10:26:11;;;;;;;19.17;8.10;;;31.60;49.70;;;;;;5072627;28;20021;-11
2022/05/26 10:28:58;;;;;;;15.45;8.25;;;31.80;49.70;;;;;;5072770;28;20494;-11
2022/05/26 10:31:46;;;;;;;12.40;6.88;;;32.10;49.10;;;;;;5073050;28;20029;-10
2022/05/26 10:34:31;;;;;;;15.02;7.00;;;32.40;47.00;;;;;;5073097;28;20032;-10
2022/05/26 10:37:26;;;;;;;17.30;8.63;;;32.50;47.10;;;;;;5073305;28;20031;-10
2022/05/26 10:40:10;;;;;;;16.88;8.77;;;32.60;47.10;;;;;;5073091;28;20031;-11
2022/05/26 10:42:43;;;;;;;12.02;7.88;;;32.70;45.60;;;;;;5073048;28;20021;-11
2022/05/26 10:45:13;;;;;;;16.15;8.80;;;32.90;46.20;;;;;;5072904;28;20055;-10
2022/05/26 10:48:08;;;;;;;14.60;7.53;;;33.20;46.20;;;;;;5072988;28;20028;-12
2022/05/26 10:50:59;;;;;;;15.20;7.25;;;33.60;44.70;;;;;;5076598;28;20031;-11
2022/05/26 10:53:33;;;;;;;14.70;7.43;;;33.50;44.10;;;;;;5077323;28;20048;-11
2022/05/26 10:56:13;;;;;;;18.92;7.57;;;33.50;45.50;;;;;;5077345;28;20021;-10
2022/05/26 10:58:50;;;;;;;13.20;6.40;;;33.70;44.30;;;;;;5077149;28;20020;-10
2022/05/26 11:01:34;;;;;;;16.83;7.55;;;33.70;44.60;;;;;;5077236;28;20029;-11
2022/05/26 11:04:30;;;;;;;10.27;6.05;;;33.90;44.70;;;;;;5076854;28;20506;-10
2022/05/26 11:07:03;;;;;;;12.63;6.40;;;34.40;43.90;;;;;;5077112;28;20050;-10
2022/05/26 11:09:50;;;;;;;12.02;6.55;;;34.70;43.90;;;;;;5076737;28;20036;-11
2022/05/26 11:12:27;;;;;;;12.90;7.18;;;34.80;42.10;;;;;;5076395;28;20032;-11
2022/05/26 11:17:52;;;;;;;12.80;7.70;;;34.90;42.40;;;;;;5076869;28;20388;-10
2022/05/26 11:20:27;;;;;;;15.18;7.25;;;35.20;41.40;;;;;;5076650;28;20065;-10
2022/05/26 11:22:57;;;;;;;21.13;7.50;;;35.40;41.60;;;;;;5076788;28;20115;-11
2022/05/26 11:25:34;;;;;;;15.35;7.03;;;35.90;41.20;;;;;;5076706;28;20040;-10
2022/05/26 11:28:30;;;;;;;13.60;6.93;;;35.60;40.60;;;;;;5076393;28;20056;-11
2022/05/26 11:36:50;;;;;;;13.60;6.57;;;34.50;42.30;;;;;;5076532;28;20055;-11
2022/05/26 11:39:34;;;;;;;12.75;7.00;;;34.10;42.60;;;;;;5076110;28;20025;-11
2022/05/26 11:42:34;;;;;;;12.70;6.32;;;34.20;41.80;;;;;;5074950;28;20442;-11
2022/05/26 11:45:15;;;;;;;12.02;7.18;;;34.30;42.40;;;;;;5075458;28;20074;-11
2022/05/26 11:47:58;;;;;;;13.40;6.05;;;34.30;40.90;;;;;;5076074;28;20021;-11
2022/05/26 11:50:36;;;;;;;11.82;6.88;;;34.30;42.00;;;;;;5075741;28;20102;-11
2022/05/26 11:53:07;;;;;;;14.60;6.60;;;34.00;41.50;;;;;;5075755;28;20072;-11
2022/05/26 11:55:54;;;;;;;14.50;6.70;;;33.50;41.70;;;;;;5076071;28;20376;-11
2022/05/26 11:58:34;;;;;;;12.60;7.32;;;33.40;43.40;;;;;;5075629;28;20016;-11
2022/05/26 12:01:27;;;;;;;16.00;7.15;;;33.40;43.60;;;;;;5075622;28;20024;-11
2022/05/26 12:03:53;;;;;;;13.63;6.88;;;33.60;42.90;;;;;;5075868;28;20032;-10
2022/05/26 12:06:37;;;;;;;14.75;6.25;;;33.80;43.10;;;;;;5075767;28;20086;-10
2022/05/26 12:09:20;;;;;;;13.15;5.95;;;34.00;41.30;;;;;;5075669;28;20027;-11
2022/05/26 12:11:56;;;;;;;11.88;6.40;;;33.90;42.30;;;;;;5075524;28;20031;-11
2022/05/26 12:14:30;;;;;;;12.20;6.38;;;33.80;42.80;;;;;;5075295;28;20119;-11
2022/05/26 12:17:33;;;;;;;13.18;6.35;;;33.80;43.10;;;;;;5075515;28;20029;-12
2022/05/26 12:20:12;;;;;;;12.50;5.70;;;33.80;41.50;;;;;;5073263;28;20064;-11
2022/05/26 12:22:49;;;;;;;13.68;6.25;;;33.70;42.30;;;;;;5073125;28;20067;-11
2022/05/26 12:25:21;;;;;;;9.20;5.25;;;33.80;42.60;;;;;;5073435;28;20119;-11
2022/05/26 12:27:56;;;;;;;10.00;5.95;;;33.70;42.60;;;;;;5073215;28;20480;-11
2022/05/26 12:30:42;;;;;;;12.15;6.00;;;34.00;42.60;;;;;;5073602;28;20082;-11
2022/05/26 12:33:19;;;;;;;13.77;6.53;;;34.20;41.90;;;;;;5072650;28;20059;-12
2022/05/26 12:36:03;;;;;;;9.15;5.10;;;34.10;41.50;;;;;;5073396;28;20033;-11
2022/05/26 12:38:50;;;;;;;10.60;5.32;;;34.30;41.70;;;;;;5072847;28;20164;-12
2022/05/26 12:41:24;;;;;;;7.93;4.70;;;34.40;40.50;;;;;;5073621;28;20464;-12
2022/05/26 12:44:21;;;;;;;9.88;5.47;;;34.50;40.60;;;;;;5072791;28;20147;-12
2022/05/26 12:46:46;;;;;;;9.27;5.30;;;34.60;41.50;;;;;;5072867;28;20078;-12
2022/05/26 12:50:00;;;;;;;10.73;5.05;;;34.50;41.70;;;;;;5073335;28;20104;-11
2022/05/26 12:52:44;;;;;;;10.10;4.90;;;34.70;41.30;;;;;;5012781;28;20034;-11
2022/05/26 12:55:46;;;;;;;13.45;6.72;;;34.80;41.50;;;;;;5012933;28;20053;-11
2022/05/26 12:58:18;;;;;;;13.38;5.57;;;34.90;38.90;;;;;;5032602;28;20033;-11
2022/05/26 13:00:49;;;;;;;8.40;4.67;;;34.80;40.80;;;;;;5032704;28;20025;-11
2022/05/26 13:03:23;;;;;;;13.60;4.95;;;34.90;40.50;;;;;;5032723;28;20025;-11
2022/05/26 13:06:00;;;;;;;6.90;4.65;;;35.20;39.70;;;;;;5033241;28;20574;-11
2022/05/26 13:08:31;;;;;;;12.35;4.88;;;35.60;39.40;;;;;;5032165;28;20033;-12
2022/05/26 13:10:59;;;;;;;12.60;5.00;;;35.90;39.10;;;;;;5032487;28;20087;-11
2022/05/26 13:13:36;;;;;;;8.70;4.72;;;36.00;38.80;;;;;;5031448;28;20044;-12
2022/05/26 13:16:36;;;;;;;8.43;4.72;;;35.80;39.00;;;;;;5032453;28;20100;-10
2022/05/26 13:19:10;;;;;;;10.45;4.72;;;35.70;38.70;;;;;;5032366;28;20493;-9
2022/05/26 13:21:37;;;;;;;11.38;4.63;;;35.30;38.60;;;;;;5032583;28;20029;-10
2022/05/26 13:24:04;;;;;;;7.55;4.72;;;35.10;38.80;;;;;;5068626;28;20033;-11
2022/05/26 13:26:30;;;;;;;8.20;4.68;;;34.90;39.50;;;;;;5073837;28;20066;-12
2022/05/26 13:29:00;;;;;;;9.85;4.57;;;34.60;38.80;;;;;;5074231;28;20024;-12
2022/05/26 13:34:14;;;;;;;6.47;4.18;;;33.90;40.60;;;;;;5074005;28;20419;-12
2022/05/26 13:36:46;;;;;;;5.60;4.13;;;33.60;41.00;;;;;;5073935;28;20039;-10
2022/05/26 13:39:23;;;;;;;8.95;4.35;;;33.30;41.60;;;;;;5073867;28;20455;-11
2022/05/26 13:41:51;;;;;;;9.25;4.75;;;32.90;42.00;;;;;;5073843;28;20473;-11